createdAt,value
2018-11-12T00:01:44.979Z,12.70
2018-11-12T00:05:52.233Z,12.70
2018-11-12T00:09:59.475Z,12.74
2018-11-12T00:14:08.154Z,12.55
2018-11-12T00:18:18.324Z,12.53
2018-11-12T00:22:25.586Z,12.50
2018-11-12T00:26:32.754Z,12.37
2018-11-12T00:30:40.004Z,12.42
2018-11-12T00:34:47.293Z,12.44
2018-11-12T00:38:54.553Z,12.44
2018-11-12T00:43:01.687Z,12.34
2018-11-12T00:47:09.050Z,12.31
2018-11-12T00:51:16.243Z,12.41
2018-11-12T00:55:23.321Z,12.39
2018-11-12T00:59:30.447Z,12.25
2018-11-12T01:03:37.849Z,12.20
2018-11-12T01:07:44.932Z,12.11
2018-11-12T01:11:53.248Z,12.03
2018-11-12T01:16:00.335Z,11.92
2018-11-12T01:20:08.359Z,11.91
2018-11-12T01:24:15.658Z,11.86
2018-11-12T01:28:22.734Z,11.93
2018-11-12T01:32:30.019Z,11.95
2018-11-12T01:36:37.163Z,11.96
2018-11-12T01:40:44.470Z,11.87
2018-11-12T01:44:51.642Z,11.92
2018-11-12T01:48:58.776Z,11.95
2018-11-12T01:53:06.411Z,11.79
2018-11-12T01:57:13.530Z,11.76
2018-11-12T02:01:20.686Z,11.81
2018-11-12T02:05:27.853Z,11.71
2018-11-12T02:09:37.548Z,11.74
2018-11-12T02:13:44.745Z,11.80
2018-11-12T02:17:51.909Z,11.86
2018-11-12T02:21:59.072Z,11.83
2018-11-12T02:26:06.499Z,11.80
2018-11-12T02:30:36.696Z,11.88
2018-11-12T02:34:43.911Z,11.97
2018-11-12T02:38:51.131Z,11.98
2018-11-12T02:42:58.484Z,11.97
2018-11-12T02:47:05.675Z,11.89
2018-11-12T02:51:12.828Z,11.86
2018-11-12T02:55:20.034Z,11.97
2018-11-12T02:59:27.227Z,12.00
2018-11-12T03:03:34.468Z,12.02
2018-11-12T03:07:42.058Z,12.11
2018-11-12T03:11:49.208Z,12.21
2018-11-12T03:15:56.542Z,12.21
2018-11-12T03:20:04.163Z,12.21
2018-11-12T03:24:11.252Z,12.33
2018-11-12T03:28:18.471Z,12.40
2018-11-12T03:32:25.727Z,12.41
2018-11-12T03:36:32.901Z,12.40
2018-11-12T03:40:40.046Z,12.41
2018-11-12T03:44:47.190Z,12.38
2018-11-12T03:48:54.354Z,12.38
2018-11-12T03:53:01.502Z,12.45
2018-11-12T03:57:08.933Z,12.48
2018-11-12T04:01:16.138Z,12.48
2018-11-12T04:05:23.244Z,12.63
2018-11-12T04:09:30.261Z,12.66
2018-11-12T04:13:40.065Z,12.62
2018-11-12T04:17:47.421Z,12.53
2018-11-12T04:21:54.754Z,12.63
2018-11-12T04:26:01.951Z,12.57
2018-11-12T04:30:14.781Z,12.61
2018-11-12T04:34:22.067Z,12.54
2018-11-12T04:38:29.283Z,12.58
2018-11-12T04:42:36.486Z,12.61
2018-11-12T04:46:43.634Z,12.63
2018-11-12T04:50:50.773Z,12.60
2018-11-12T04:54:57.959Z,12.65
2018-11-12T04:59:05.140Z,12.70
2018-11-12T05:03:12.541Z,12.72
2018-11-12T05:07:19.884Z,12.76
2018-11-12T05:11:27.005Z,12.75
2018-11-12T05:15:34.224Z,12.77
2018-11-12T05:19:41.368Z,12.77
2018-11-12T05:23:48.656Z,12.72
2018-11-12T05:27:55.915Z,12.72
2018-11-12T05:32:03.380Z,12.64
2018-11-12T05:36:10.762Z,12.74
2018-11-12T05:40:19.281Z,12.68
2018-11-12T05:44:26.519Z,12.73
2018-11-12T05:48:34.062Z,12.71
2018-11-12T05:52:41.848Z,12.74
2018-11-12T05:56:49.363Z,12.75
2018-11-12T06:00:56.548Z,12.81
2018-11-12T06:05:03.899Z,12.69
2018-11-12T06:09:12.813Z,12.80
2018-11-12T06:13:22.965Z,12.80
2018-11-12T06:17:30.067Z,12.85
2018-11-12T06:21:37.189Z,12.90
2018-11-12T06:25:44.416Z,12.90
2018-11-12T06:29:51.603Z,13.10
2018-11-12T06:34:01.572Z,13.10
2018-11-12T06:38:10.990Z,13.11
2018-11-12T06:42:18.259Z,13.00
2018-11-12T06:46:25.512Z,13.03
2018-11-12T06:50:33.950Z,13.02
2018-11-12T06:54:41.125Z,12.95
2018-11-12T06:58:48.421Z,13.19
2018-11-12T07:02:55.831Z,13.10
2018-11-12T07:07:03.455Z,13.12
2018-11-12T07:11:11.033Z,13.12
2018-11-12T07:15:26.006Z,13.26
2018-11-12T07:19:41.954Z,13.27
2018-11-12T07:23:49.456Z,13.34
2018-11-12T07:27:57.431Z,13.34
2018-11-12T07:32:05.452Z,13.38
2018-11-12T07:36:12.692Z,13.35
2018-11-12T07:40:20.573Z,13.34
2018-11-12T07:44:28.000Z,13.31
2018-11-12T07:48:35.432Z,13.32
2018-11-12T07:52:42.833Z,13.42
2018-11-12T07:56:50.293Z,13.39
2018-11-12T08:00:59.069Z,13.35
2018-11-12T08:05:06.768Z,13.50
2018-11-12T08:09:14.053Z,13.50
2018-11-12T08:14:26.940Z,13.51
2018-11-12T08:18:54.945Z,13.57
2018-11-12T08:23:02.629Z,13.66
2018-11-12T08:27:11.495Z,13.72
2018-11-12T08:31:18.657Z,13.73
2018-11-12T08:35:26.028Z,13.75
2018-11-12T08:39:33.393Z,13.72
2018-11-12T08:43:40.480Z,13.60
2018-11-12T08:47:49.285Z,13.63
2018-11-12T08:51:56.598Z,13.43
2018-11-12T08:56:03.925Z,13.32
2018-11-12T09:00:12.551Z,13.33
2018-11-12T09:04:20.825Z,13.42
2018-11-12T09:08:28.231Z,13.37
2018-11-12T09:12:35.529Z,13.31
2018-11-12T09:16:42.830Z,13.40
2018-11-12T09:20:49.980Z,13.43
2018-11-12T09:25:00.005Z,13.60
2018-11-12T09:29:07.290Z,13.54
2018-11-12T09:33:14.735Z,13.66
2018-11-12T09:37:22.399Z,13.79
2018-11-12T09:41:29.583Z,13.79
2018-11-12T09:45:37.021Z,13.91
2018-11-12T09:49:44.220Z,13.91
2018-11-12T09:53:51.447Z,13.95
2018-11-12T09:58:00.151Z,14.08
2018-11-12T10:02:08.263Z,14.11
2018-11-12T10:06:16.201Z,14.25
2018-11-12T10:10:40.320Z,14.30
2018-11-12T10:14:48.130Z,14.44
2018-11-12T10:18:52.385Z,14.45
2018-11-12T10:22:59.623Z,14.48
2018-11-12T10:27:07.234Z,14.56
2018-11-12T10:31:14.398Z,14.52
2018-11-12T10:35:21.688Z,14.58
2018-11-12T10:39:28.933Z,14.63
2018-11-12T10:43:38.741Z,14.76
2018-11-12T10:47:48.841Z,14.75
2018-11-12T10:51:57.130Z,14.82
2018-11-12T10:56:04.422Z,14.83
2018-11-12T11:00:43.660Z,14.78
2018-11-12T11:04:50.956Z,14.85
2018-11-12T11:08:58.129Z,14.83
2018-11-12T11:13:05.945Z,14.95
2018-11-12T11:17:13.288Z,14.88
2018-11-12T11:21:20.555Z,14.87
2018-11-12T11:25:27.814Z,14.95
2018-11-12T11:29:35.138Z,14.94
2018-11-12T11:33:42.614Z,14.92
2018-11-12T11:37:52.744Z,14.96
2018-11-12T11:42:00.039Z,14.89
2018-11-12T11:46:07.379Z,14.92
2018-11-12T11:50:16.724Z,15.00
2018-11-12T11:54:23.928Z,14.81
2018-11-12T11:58:31.224Z,15.00
2018-11-12T12:02:38.651Z,15.07
2018-11-12T12:06:46.111Z,15.18
2018-11-12T12:10:53.454Z,15.15
2018-11-12T12:15:00.881Z,15.29
2018-11-12T12:19:08.813Z,15.21
2018-11-12T12:23:16.218Z,15.31
2018-11-12T12:27:23.389Z,15.39
2018-11-12T12:31:30.558Z,15.48
2018-11-12T12:35:37.920Z,15.59
2018-11-12T12:39:45.064Z,15.79
2018-11-12T12:43:52.423Z,15.83
2018-11-12T12:48:00.057Z,15.60
2018-11-12T12:52:07.980Z,15.71
2018-11-12T12:56:15.263Z,15.55
2018-11-12T13:00:26.656Z,15.70
2018-11-12T13:04:35.753Z,15.89
2018-11-12T13:08:43.199Z,15.71
2018-11-12T13:12:50.457Z,15.83
2018-11-12T13:16:57.621Z,15.91
2018-11-12T13:21:05.050Z,16.17
2018-11-12T13:25:12.552Z,16.28
2018-11-12T13:29:22.008Z,16.45
2018-11-12T13:33:29.279Z,16.42
2018-11-12T13:37:36.572Z,16.58
2018-11-12T13:41:46.201Z,16.78
2018-11-12T13:45:55.486Z,16.94
2018-11-12T13:50:00.878Z,17.04
2018-11-12T13:54:11.533Z,17.02
2018-11-12T13:58:18.754Z,17.15
2018-11-12T14:02:25.904Z,17.13
2018-11-12T14:06:33.116Z,17.27
2018-11-12T14:10:40.458Z,17.27
2018-11-12T14:14:47.714Z,17.29
2018-11-12T14:18:54.896Z,17.41
2018-11-12T14:23:02.236Z,17.47
2018-11-12T14:27:09.528Z,17.52
2018-11-12T14:31:18.147Z,17.46
2018-11-12T14:35:26.516Z,17.45
2018-11-12T14:39:33.759Z,17.47
2018-11-12T14:43:41.210Z,17.48
2018-11-12T14:47:48.893Z,17.44
2018-11-12T14:51:56.010Z,17.48
2018-11-12T14:56:03.226Z,17.44
2018-11-12T15:00:23.109Z,17.43
2018-11-12T15:04:30.318Z,17.33
2018-11-12T15:08:37.686Z,17.43
2018-11-12T15:12:46.314Z,17.42
2018-11-12T15:16:53.478Z,17.38
2018-11-12T15:21:01.010Z,17.40
2018-11-12T15:25:17.555Z,17.33
2018-11-12T15:29:24.721Z,17.34
2018-11-12T15:33:33.044Z,17.32
2018-11-12T15:37:40.676Z,17.29
2018-11-12T15:41:47.826Z,17.28
2018-11-12T15:45:55.111Z,17.25
2018-11-12T15:50:02.550Z,17.29
2018-11-12T15:54:10.209Z,17.31
2018-11-12T15:58:17.715Z,17.28
2018-11-12T16:02:24.851Z,17.20
2018-11-12T16:06:32.188Z,17.19
2018-11-12T16:10:41.660Z,17.17
2018-11-12T16:14:48.935Z,17.18
2018-11-12T16:18:56.221Z,17.19
2018-11-12T16:23:03.364Z,17.14
2018-11-12T16:27:10.554Z,17.15
2018-11-12T16:31:17.698Z,17.33
2018-11-12T16:35:26.008Z,17.09
2018-11-12T16:39:33.214Z,17.15
2018-11-12T16:43:40.601Z,17.02
2018-11-12T16:47:49.619Z,17.04
2018-11-12T16:51:57.116Z,17.07
2018-11-12T16:56:04.436Z,17.10
2018-11-12T17:00:19.337Z,16.50
2018-11-12T17:04:26.761Z,15.40
2018-11-12T17:08:34.121Z,15.40
2018-11-12T17:12:42.628Z,15.27
2018-11-12T17:16:50.056Z,15.18
2018-11-12T17:20:57.326Z,15.18
2018-11-12T17:25:04.950Z,15.05
2018-11-12T17:29:12.304Z,15.03
2018-11-12T17:33:19.562Z,15.02
2018-11-12T17:37:28.889Z,14.81
2018-11-12T17:41:36.607Z,14.75
2018-11-12T17:45:44.007Z,14.60
2018-11-12T17:49:53.381Z,14.63
2018-11-12T17:54:00.575Z,14.53
2018-11-12T17:58:08.053Z,14.50
2018-11-12T18:02:16.003Z,14.45
2018-11-12T18:06:23.823Z,14.47
2018-11-12T18:10:32.165Z,14.51
2018-11-12T18:14:39.514Z,14.45
2018-11-12T18:18:46.987Z,14.50
2018-11-12T18:22:54.903Z,14.51
2018-11-12T18:27:02.180Z,14.44
2018-11-12T18:31:10.262Z,14.50
2018-11-12T18:35:19.668Z,14.45
2018-11-12T18:39:26.998Z,14.48
2018-11-12T18:43:34.648Z,14.56
2018-11-12T18:47:42.205Z,14.59
2018-11-12T18:51:49.563Z,14.64
2018-11-12T18:55:56.748Z,14.68
2018-11-12T19:00:04.578Z,14.69
2018-11-12T19:04:11.996Z,14.75
2018-11-12T19:08:19.821Z,14.74
2018-11-12T19:12:27.190Z,14.74
2018-11-12T19:16:34.599Z,14.73
2018-11-12T19:20:41.841Z,14.74
2018-11-12T19:24:49.130Z,14.76
2018-11-12T19:28:56.330Z,14.80
2018-11-12T19:33:03.676Z,14.78
2018-11-12T19:37:10.720Z,14.95
2018-11-12T19:41:17.982Z,14.85
2018-11-12T19:45:25.477Z,15.00
2018-11-12T19:49:33.069Z,14.93
2018-11-12T19:53:40.432Z,14.91
2018-11-12T19:57:48.454Z,14.86
2018-11-12T20:01:58.735Z,14.88
2018-11-12T20:06:03.615Z,14.96
2018-11-12T20:10:16.703Z,14.96
2018-11-12T20:14:24.147Z,14.63
2018-11-12T20:18:31.567Z,14.63
2018-11-12T20:22:38.701Z,14.66
2018-11-12T20:26:46.039Z,14.74
2018-11-12T20:30:53.440Z,14.79
2018-11-12T20:35:02.749Z,14.77
2018-11-12T20:39:11.588Z,14.75
2018-11-12T20:43:18.932Z,14.82
2018-11-12T20:47:26.203Z,14.83
2018-11-12T20:51:33.557Z,14.88
2018-11-12T20:55:40.725Z,14.86
2018-11-12T20:59:48.160Z,14.89
2018-11-12T21:03:55.413Z,14.97
2018-11-12T21:08:02.744Z,14.94
2018-11-12T21:12:09.884Z,14.99
2018-11-12T21:16:17.119Z,15.00
2018-11-12T21:20:25.516Z,14.96
2018-11-12T21:24:33.364Z,14.98
2018-11-12T21:28:40.509Z,14.98
2018-11-12T21:32:48.030Z,14.97
2018-11-12T21:36:55.364Z,14.99
2018-11-12T21:41:02.773Z,14.96
2018-11-12T21:45:12.068Z,14.94
2018-11-12T21:49:19.372Z,14.99
2018-11-12T21:53:26.612Z,14.93
2018-11-12T21:57:34.053Z,15.01
2018-11-12T22:01:41.473Z,14.99
2018-11-12T22:05:48.905Z,15.01
2018-11-12T22:09:56.848Z,14.93
2018-11-12T22:14:06.143Z,14.81
2018-11-12T22:18:13.638Z,14.74
2018-11-12T22:22:21.096Z,14.84
2018-11-12T22:26:28.289Z,14.80
2018-11-12T22:30:35.641Z,14.71
2018-11-12T22:34:43.123Z,14.71
2018-11-12T22:38:50.345Z,14.64
2018-11-12T22:42:57.990Z,14.56
2018-11-12T22:47:05.244Z,14.48
2018-11-12T22:51:15.053Z,14.53
2018-11-12T22:55:22.468Z,14.53
2018-11-12T22:59:30.116Z,14.55
2018-11-12T23:03:37.396Z,14.56
2018-11-12T23:07:45.175Z,14.41
2018-11-12T23:11:53.057Z,14.37
2018-11-12T23:16:03.174Z,14.38
2018-11-12T23:20:31.080Z,14.29
2018-11-12T23:24:38.561Z,14.24
2018-11-12T23:28:46.064Z,14.25
2018-11-12T23:32:53.488Z,14.27
2018-11-12T23:37:00.900Z,14.17
2018-11-12T23:41:08.684Z,14.17
2018-11-12T23:45:21.642Z,14.15
2018-11-12T23:49:29.296Z,14.12
2018-11-12T23:53:36.631Z,14.17
2018-11-12T23:57:44.137Z,14.17
